Time;durP1;ratioP1;P1;durP2;ratioP2;P2;SDS_P1;SDS_P2;PMS_P1;PMS_P2;Temp;Humidity;BMP_temperature;BMP_pressure;BME280_temperature;BME280_humidity;BME280_pressure;Samples;Min_cycle;Max_cycle;Signal;HPM_P1;HPM_P2
2022/12/12 00:02:19;;;;;;;0.60;0.60;;;;;;;;;;5032192;28;20210;-87
2022/12/12 00:04:47;;;;;;;0.50;0.50;;;;;;;;;;5031373;28;20241;-86
2022/12/12 00:07:15;;;;;;;1.23;1.13;;;;;;;;;;5031851;28;20209;-86
2022/12/12 00:09:43;;;;;;;0.80;0.80;;;;;;;;;;5050816;28;20692;-86
2022/12/12 00:12:12;;;;;;;1.10;1.10;;;;;;;;;;5018483;28;20210;-85
2022/12/12 00:14:39;;;;;;;0.80;0.60;;;;;;;;;;5051570;28;20202;-86
2022/12/12 00:17:07;;;;;;;0.80;0.80;;;;;;;;;;5046521;28;20217;-86
2022/12/12 00:19:35;;;;;;;1.47;1.37;;;;;;;;;;5013633;28;20214;-85
2022/12/12 00:22:02;;;;;;;0.60;0.60;;;;;;;;;;5034944;28;20217;-86
2022/12/12 00:24:29;;;;;;;0.87;0.70;;;;;;;;;;5051214;28;20238;-87
2022/12/12 00:26:57;;;;;;;0.70;0.70;;;;;;;;;;5015838;28;20199;-86
2022/12/12 00:29:26;;;;;;;0.90;0.90;;;;;;;;;;5043404;28;20202;-86
2022/12/12 00:31:53;;;;;;;0.90;0.90;;;;;;;;;;5014110;28;20206;-86
2022/12/12 00:34:21;;;;;;;0.57;0.57;;;;;;;;;;5014213;28;20203;-87
2022/12/12 00:36:50;;;;;;;0.50;0.50;;;;;;;;;;5033275;28;20218;-86
2022/12/12 00:39:17;;;;;;;0.43;0.43;;;;;;;;;;5045515;28;20205;-86
2022/12/12 00:41:47;;;;;;;0.50;0.50;;;;;;;;;;5050977;28;20209;-86
2022/12/12 00:44:15;;;;;;;0.50;0.50;;;;;;;;;;5033195;28;20229;-87
2022/12/12 00:46:44;;;;;;;0.77;0.77;;;;;;;;;;5051403;28;20209;-87
2022/12/12 00:49:14;;;;;;;2.13;1.97;;;;;;;;;;5038670;28;20210;-87
2022/12/12 00:51:41;;;;;;;1.10;1.00;;;;;;;;;;5050105;28;20241;-87
2022/12/12 00:54:09;;;;;;;0.60;0.60;;;;;;;;;;5039069;28;20214;-87
2022/12/12 00:56:37;;;;;;;2.00;0.60;;;;;;;;;;5026387;28;20206;-87
2022/12/12 00:59:05;;;;;;;0.43;0.43;;;;;;;;;;5050110;28;20198;-87
2022/12/12 01:01:33;;;;;;;0.57;0.57;;;;;;;;;;5020700;28;20202;-86
2022/12/12 01:04:03;;;;;;;0.50;0.50;;;;;;;;;;5045201;28;20233;-86
2022/12/12 01:06:31;;;;;;;0.60;0.60;;;;;;;;;;5033397;28;20203;-88
2022/12/12 01:08:59;;;;;;;1.03;0.93;;;;;;;;;;5048715;28;20236;-86
2022/12/12 01:11:27;;;;;;;0.70;0.70;;;;;;;;;;5032690;28;20214;-86
2022/12/12 01:13:54;;;;;;;1.00;1.00;;;;;;;;;;5030554;28;20225;-86
2022/12/12 01:16:24;;;;;;;0.90;0.90;;;;;;;;;;5039539;28;20714;-86
2022/12/12 01:18:52;;;;;;;1.20;1.10;;;;;;;;;;5037165;28;20214;-87
2022/12/12 01:21:21;;;;;;;4.37;1.00;;;;;;;;;;5044457;28;20649;-85
2022/12/12 01:23:48;;;;;;;0.80;0.80;;;;;;;;;;5052236;28;20244;-85
2022/12/12 01:26:17;;;;;;;0.93;0.93;;;;;;;;;;5053855;28;20209;-85
2022/12/12 01:28:45;;;;;;;1.80;0.97;;;;;;;;;;5051094;28;20202;-85
2022/12/12 01:31:13;;;;;;;4.17;3.37;;;;;;;;;;5024977;28;20207;-86
2022/12/12 01:33:44;;;;;;;4.37;3.43;;;;;;;;;;5050412;28;20661;-85
2022/12/12 01:36:15;;;;;;;4.83;3.27;;;;;;;;;;5051897;28;20237;-85
2022/12/12 01:38:44;;;;;;;1.40;1.30;;;;;;;;;;5054242;28;20220;-84
2022/12/12 01:41:12;;;;;;;0.80;0.80;;;;;;;;;;5039989;28;20779;-85
2022/12/12 01:43:39;;;;;;;8.83;6.17;;;;;;;;;;5054078;28;20210;-86
2022/12/12 01:46:34;;;;;;;16.50;10.30;;;;;;;;;;5054472;28;20602;-85
2022/12/12 01:49:17;;;;;;;1.93;1.77;;;;;;;;;;5054092;28;20206;-84
2022/12/12 01:51:47;;;;;;;1.00;1.00;;;;;;;;;;5050431;28;20284;-86
2022/12/12 01:54:18;;;;;;;1.23;1.00;;;;;;;;;;5048297;28;20704;-86
2022/12/12 01:56:47;;;;;;;0.70;0.70;;;;;;;;;;5053764;28;20216;-86
2022/12/12 01:59:16;;;;;;;2.83;1.30;;;;;;;;;;5054131;28;20289;-86
2022/12/12 02:01:44;;;;;;;1.47;1.37;;;;;;;;;;5035365;28;20718;-85
2022/12/12 02:04:12;;;;;;;1.23;1.13;;;;;;;;;;5050417;28;20240;-85
2022/12/12 02:06:39;;;;;;;7.93;6.40;;;;;;;;;;5033275;28;20202;-86
2022/12/12 02:09:11;;;;;;;5.33;4.10;;;;;;;;;;5042473;28;20599;-85
2022/12/12 02:11:44;;;;;;;3.33;3.03;;;;;;;;;;5036691;28;20264;-85
2022/12/12 02:14:13;;;;;;;3.73;2.90;;;;;;;;;;5044940;28;20210;-85
2022/12/12 02:16:52;;;;;;;2.13;1.90;;;;;;;;;;5017534;28;20217;-84
2022/12/12 02:19:45;;;;;;;3.07;1.70;;;;;;;;;;5032390;28;20206;-85
2022/12/12 02:22:21;;;;;;;1.90;1.70;;;;;;;;;;5037637;28;20214;-85
2022/12/12 02:25:22;;;;;;;1.30;1.20;;;;;;;;;;5043661;28;20291;-85
2022/12/12 02:31:01;;;;;;;8.93;5.70;;;;;;;;;;5129401;27;20990;-86
2022/12/12 02:33:34;;;;;;;2.27;2.03;;;;;;;;;;5129924;27;20202;-86
2022/12/12 02:36:10;;;;;;;8.47;4.60;;;;;;;;;;5116001;28;20621;-86
2022/12/12 02:38:45;;;;;;;6.47;3.83;;;;;;;;;;5111410;27;20211;-86
2022/12/12 02:41:17;;;;;;;1.53;1.43;;;;;;;;;;5102973;28;20215;-86
2022/12/12 02:43:52;;;;;;;0.53;0.53;;;;;;;;;;5115282;27;20203;-85
2022/12/12 02:46:26;;;;;;;0.60;0.60;;;;;;;;;;5125305;28;20556;-86
2022/12/12 02:48:58;;;;;;;3.63;2.57;;;;;;;;;;5117708;28;20231;-86
2022/12/12 02:51:25;;;;;;;4.93;4.17;;;;;;;;;;5122848;28;20203;-87
2022/12/12 02:53:53;;;;;;;2.97;2.70;;;;;;;;;;5118176;28;20206;-86
2022/12/12 02:56:45;;;;;;;2.53;1.90;;;;;;;;;;5114793;27;20655;-86
2022/12/12 02:59:15;;;;;;;9.23;5.73;;;;;;;;;;5099613;28;20673;-85
2022/12/12 03:01:54;;;;;;;10.73;6.67;;;;;;;;;;5119761;28;20199;-85
2022/12/12 03:10:03;;;;;;;2.40;2.20;;;;;;;;;;5128820;28;20313;-85
2022/12/12 03:12:36;;;;;;;31.83;18.50;;;;;;;;;;5125408;28;20206;-86
2022/12/12 03:15:07;;;;;;;12.13;8.27;;;;;;;;;;5117224;28;20272;-86
2022/12/12 03:17:39;;;;;;;5.60;4.30;;;;;;;;;;5115158;28;20207;-85
2022/12/12 03:20:11;;;;;;;3.10;1.87;;;;;;;;;;5128376;27;20225;-86
2022/12/12 03:22:44;;;;;;;1.53;1.43;;;;;;;;;;5095278;28;20199;-86
2022/12/12 03:25:15;;;;;;;3.57;2.20;;;;;;;;;;5116903;28;20208;-87
2022/12/12 03:27:48;;;;;;;2.23;2.03;;;;;;;;;;5127714;28;20236;-86
2022/12/12 03:30:16;;;;;;;2.53;2.30;;;;;;;;;;5113116;27;20716;-86
2022/12/12 03:32:52;;;;;;;2.23;2.07;;;;;;;;;;5108105;28;20283;-86
2022/12/12 03:35:22;;;;;;;3.13;2.83;;;;;;;;;;5108678;28;20203;-86
2022/12/12 03:37:51;;;;;;;3.07;2.70;;;;;;;;;;5102577;28;20204;-87
2022/12/12 03:40:21;;;;;;;3.50;3.20;;;;;;;;;;5118656;28;20636;-87
2022/12/12 03:42:55;;;;;;;3.50;3.20;;;;;;;;;;5111903;28;20203;-87
2022/12/12 03:45:26;;;;;;;7.80;7.00;;;;;;;;;;5104258;28;20719;-87
2022/12/12 03:47:59;;;;;;;4.40;4.00;;;;;;;;;;5114649;28;20278;-87
2022/12/12 03:50:28;;;;;;;3.93;3.63;;;;;;;;;;5103568;28;20223;-86
2022/12/12 03:52:58;;;;;;;2.17;1.80;;;;;;;;;;5099704;28;20576;-87
2022/12/12 03:55:28;;;;;;;1.40;1.30;;;;;;;;;;5114792;28;20638;-86
2022/12/12 03:57:58;;;;;;;2.77;1.67;;;;;;;;;;5114447;28;20212;-87
2022/12/12 04:00:27;;;;;;;1.10;1.10;;;;;;;;;;5113659;28;20252;-87
2022/12/12 04:02:59;;;;;;;0.90;0.90;;;;;;;;;;5113926;28;20637;-87
2022/12/12 04:05:31;;;;;;;1.40;1.30;;;;;;;;;;5091239;28;20727;-88
2022/12/12 04:08:01;;;;;;;1.17;1.17;;;;;;;;;;5102675;28;20258;-88
2022/12/12 04:13:25;;;;;;;1.63;1.53;;;;;;;;;;5113206;28;20263;-88
2022/12/12 04:15:56;;;;;;;1.60;1.50;;;;;;;;;;5111345;28;20207;-88
2022/12/12 04:18:34;;;;;;;1.70;1.60;;;;;;;;;;5088089;28;20200;-88
2022/12/12 04:24:00;;;;;;;1.77;1.60;;;;;;;;;;5088136;28;20211;-89
2022/12/12 04:26:41;;;;;;;1.70;1.57;;;;;;;;;;5088610;28;20204;-88
2022/12/12 04:29:14;;;;;;;2.17;1.93;;;;;;;;;;5086403;28;20282;-90
2022/12/12 04:31:47;;;;;;;2.20;2.00;;;;;;;;;;5092622;28;20262;-88
2022/12/12 04:34:23;;;;;;;1.83;1.70;;;;;;;;;;5114159;28;20276;-87
2022/12/12 04:36:52;;;;;;;1.87;1.77;;;;;;;;;;5113165;28;20699;-88
2022/12/12 04:39:22;;;;;;;1.40;1.30;;;;;;;;;;5113660;28;20214;-88
2022/12/12 04:41:52;;;;;;;1.90;1.80;;;;;;;;;;5101300;28;20200;-88
2022/12/12 04:44:21;;;;;;;144.30;45.57;;;;;;;;;;5109506;28;20212;-88
2022/12/12 04:46:51;;;;;;;135.33;43.30;;;;;;;;;;5100999;28;20637;-88
2022/12/12 04:49:23;;;;;;;9.90;5.23;;;;;;;;;;5112315;28;20234;-88
2022/12/12 04:52:10;;;;;;;13.10;5.70;;;;;;;;;;5079137;28;20209;-88
2022/12/12 04:54:44;;;;;;;6.13;4.97;;;;;;;;;;5109365;28;20849;-87
2022/12/12 04:57:16;;;;;;;2.93;2.70;;;;;;;;;;5113341;28;20211;-88
2022/12/12 04:59:44;;;;;;;2.43;1.80;;;;;;;;;;5081994;28;21868;-89
2022/12/12 05:02:34;;;;;;;;;;;;;;;;;;;;;
2022/12/12 05:05:07;;;;;;;1.70;1.60;;;;;;;;;;5112642;28;20603;-89
2022/12/12 05:07:37;;;;;;;1.03;1.00;;;;;;;;;;5113471;28;20199;-88
2022/12/12 05:10:07;;;;;;;0.80;0.80;;;;;;;;;;5105607;28;20235;-87
2022/12/12 05:12:41;;;;;;;56.93;36.43;;;;;;;;;;5085227;28;20205;-88
2022/12/12 05:15:09;;;;;;;12.90;8.23;;;;;;;;;;5098654;28;20203;-86
2022/12/12 05:17:43;;;;;;;2.67;2.47;;;;;;;;;;5112683;28;20206;-84
2022/12/12 05:20:13;;;;;;;8.90;7.30;;;;;;;;;;5112980;27;20199;-86
2022/12/12 05:22:40;;;;;;;2.83;1.87;;;;;;;;;;5107314;28;20204;-86
2022/12/12 05:25:08;;;;;;;1.33;1.23;;;;;;;;;;5092617;28;20207;-88
2022/12/12 05:27:36;;;;;;;1.00;1.00;;;;;;;;;;5078945;28;20201;-90
2022/12/12 05:30:06;;;;;;;1.87;1.70;;;;;;;;;;5106046;28;20257;-91
2022/12/12 05:32:34;;;;;;;1.10;1.10;;;;;;;;;;5097803;28;20211;-93
2022/12/12 05:35:02;;;;;;;1.20;1.10;;;;;;;;;;5113376;28;20666;-91
2022/12/12 05:37:32;;;;;;;0.90;0.90;;;;;;;;;;5098524;28;20211;-91
2022/12/12 05:39:59;;;;;;;1.60;1.23;;;;;;;;;;5100227;28;20201;-91
2022/12/12 05:42:26;;;;;;;4.30;3.90;;;;;;;;;;5091418;28;20855;-91
2022/12/12 05:44:53;;;;;;;1.80;1.70;;;;;;;;;;5097876;28;20207;-91
2022/12/12 05:47:20;;;;;;;1.20;1.20;;;;;;;;;;5085745;28;20209;-89
2022/12/12 05:49:48;;;;;;;17.33;9.70;;;;;;;;;;5087223;28;20602;-91
2022/12/12 05:52:15;;;;;;;3.80;2.20;;;;;;;;;;5086278;28;20207;-90
2022/12/12 05:54:43;;;;;;;1.53;1.40;;;;;;;;;;5091595;28;20204;-89
2022/12/12 05:57:10;;;;;;;1.40;1.30;;;;;;;;;;5100488;28;20218;-89
2022/12/12 05:59:37;;;;;;;0.80;0.80;;;;;;;;;;5111568;28;20200;-90
2022/12/12 06:02:04;;;;;;;8.00;6.20;;;;;;;;;;5098386;28;20211;-94
2022/12/12 06:04:31;;;;;;;11.43;7.80;;;;;;;;;;5098582;28;20223;-90
2022/12/12 06:06:58;;;;;;;7.03;5.83;;;;;;;;;;5100820;28;20698;-89
2022/12/12 06:09:25;;;;;;;5.63;5.03;;;;;;;;;;5110185;28;20207;-90
2022/12/12 06:11:54;;;;;;;8.40;6.57;;;;;;;;;;5094275;28;20716;-90
2022/12/12 06:14:21;;;;;;;5.63;5.20;;;;;;;;;;5102822;28;20273;-89
2022/12/12 06:16:48;;;;;;;7.47;6.77;;;;;;;;;;5106815;28;20210;-91
2022/12/12 06:19:15;;;;;;;7.87;6.93;;;;;;;;;;5106516;28;20626;-93
2022/12/12 06:21:43;;;;;;;8.03;7.23;;;;;;;;;;5151702;22;20270;-96
2022/12/12 06:24:10;;;;;;;6.33;5.73;;;;;;;;;;5081096;28;20682;-94
2022/12/12 06:26:37;;;;;;;5.97;5.33;;;;;;;;;;5071844;28;20617;-96
2022/12/12 06:29:06;;;;;;;28.00;20.90;;;;;;;;;;5071942;28;20224;-96
2022/12/12 06:31:34;;;;;;;28.40;21.70;;;;;;;;;;5073523;28;20232;-96
2022/12/12 06:34:01;;;;;;;22.20;17.57;;;;;;;;;;5079180;28;20201;-96
2022/12/12 06:36:29;;;;;;;63.93;43.23;;;;;;;;;;5075330;28;20200;-96
2022/12/12 06:38:58;;;;;;;31.30;25.53;;;;;;;;;;5073978;28;20201;-96
2022/12/12 06:41:26;;;;;;;6.33;5.33;;;;;;;;;;5075834;28;20192;-96
2022/12/12 06:43:54;;;;;;;6.17;5.57;;;;;;;;;;5082146;28;20572;-96
2022/12/12 06:46:28;;;;;;;6.13;5.53;;;;;;;;;;5078883;28;20204;-92
2022/12/12 06:48:55;;;;;;;5.37;4.87;;;;;;;;;;5070754;28;20208;-89
2022/12/12 06:51:25;;;;;;;4.30;3.90;;;;;;;;;;5072090;28;20235;-89
2022/12/12 06:53:52;;;;;;;12.57;8.70;;;;;;;;;;5069447;28;20216;-89
2022/12/12 06:56:21;;;;;;;48.43;33.60;;;;;;;;;;5065970;28;20228;-90
2022/12/12 06:58:49;;;;;;;42.33;28.70;;;;;;;;;;5071431;28;20609;-92
2022/12/12 07:01:18;;;;;;;37.77;29.60;;;;;;;;;;5070624;28;20595;-92
2022/12/12 07:03:46;;;;;;;17.50;14.13;;;;;;;;;;5072177;28;20300;-93
2022/12/12 07:06:15;;;;;;;5.90;5.30;;;;;;;;;;5070977;28;20212;-91
2022/12/12 07:08:45;;;;;;;1.83;1.73;;;;;;;;;;5071254;28;20291;-95
2022/12/12 07:11:16;;;;;;;2.67;2.37;;;;;;;;;;5070210;28;20227;-94
2022/12/12 07:13:44;;;;;;;1.73;1.63;;;;;;;;;;5069041;28;20223;-95
2022/12/12 07:16:11;;;;;;;1.90;1.80;;;;;;;;;;5073099;28;20208;-93
2022/12/12 07:18:38;;;;;;;3.07;2.40;;;;;;;;;;5076944;28;20270;-91
2022/12/12 07:21:09;;;;;;;2.40;2.20;;;;;;;;;;5079841;28;20205;-95
2022/12/12 07:23:36;;;;;;;2.00;1.90;;;;;;;;;;5077427;28;20247;-88
2022/12/12 07:26:05;;;;;;;4.60;3.80;;;;;;;;;;5074916;28;20208;-92
2022/12/12 07:28:32;;;;;;;2.07;1.67;;;;;;;;;;5074160;28;20197;-94
2022/12/12 07:31:00;;;;;;;2.40;2.20;;;;;;;;;;5074809;28;20646;-93
2022/12/12 07:33:26;;;;;;;5.97;5.07;;;;;;;;;;5073644;28;20205;-92
2022/12/12 07:35:59;;;;;;;8.27;7.17;;;;;;;;;;5075160;28;20205;-94
2022/12/12 07:38:28;;;;;;;12.87;9.60;;;;;;;;;;5077175;28;20200;-89
2022/12/12 07:40:55;;;;;;;7.53;5.83;;;;;;;;;;5074490;28;20208;-89
2022/12/12 07:43:22;;;;;;;3.63;3.33;;;;;;;;;;5073199;28;20197;-89
2022/12/12 07:45:51;;;;;;;1.70;1.60;;;;;;;;;;5074199;28;20205;-89
2022/12/12 07:48:19;;;;;;;1.10;1.00;;;;;;;;;;5070278;28;20205;-89
2022/12/12 07:50:46;;;;;;;3.83;2.83;;;;;;;;;;5072701;28;20229;-89
2022/12/12 07:53:13;;;;;;;7.93;4.97;;;;;;;;;;5072985;28;20587;-89
2022/12/12 07:55:42;;;;;;;5.37;3.57;;;;;;;;;;5070484;28;20212;-88
2022/12/12 07:58:09;;;;;;;4.00;3.30;;;;;;;;;;5072547;28;20266;-90
2022/12/12 08:00:36;;;;;;;2.27;2.07;;;;;;;;;;5051128;28;20212;-92
2022/12/12 08:03:03;;;;;;;2.67;2.20;;;;;;;;;;5073104;28;20201;-89
2022/12/12 08:05:30;;;;;;;3.57;2.77;;;;;;;;;;5072048;28;20226;-89
2022/12/12 08:07:57;;;;;;;4.43;2.80;;;;;;;;;;5074175;28;20624;-89
2022/12/12 08:10:24;;;;;;;5.60;4.60;;;;;;;;;;5074979;28;20703;-90
2022/12/12 08:12:53;;;;;;;5.10;4.60;;;;;;;;;;5072331;28;20208;-91
2022/12/12 08:15:20;;;;;;;4.03;3.73;;;;;;;;;;5075117;28;20209;-90
2022/12/12 08:17:47;;;;;;;4.67;4.27;;;;;;;;;;5073315;28;20220;-91
2022/12/12 08:20:15;;;;;;;5.17;4.53;;;;;;;;;;5073195;28;20201;-91
2022/12/12 08:22:43;;;;;;;4.83;3.93;;;;;;;;;;5072821;28;20240;-92
2022/12/12 08:25:10;;;;;;;1.80;1.70;;;;;;;;;;5074054;28;20197;-91
2022/12/12 08:27:37;;;;;;;2.33;2.23;;;;;;;;;;5072079;28;20209;-90
2022/12/12 08:30:06;;;;;;;4.70;2.00;;;;;;;;;;5073177;28;20209;-90
2022/12/12 08:32:34;;;;;;;4.63;3.63;;;;;;;;;;5073525;28;20272;-90
2022/12/12 08:35:00;;;;;;;2.07;1.97;;;;;;;;;;5073396;28;20212;-91
2022/12/12 08:37:28;;;;;;;2.93;2.60;;;;;;;;;;5073918;28;20234;-90
2022/12/12 08:39:54;;;;;;;2.20;2.00;;;;;;;;;;5059875;28;20271;-90
2022/12/12 08:42:21;;;;;;;1.80;1.70;;;;;;;;;;5073967;28;20215;-90
2022/12/12 08:44:51;;;;;;;1.97;1.70;;;;;;;;;;5073963;28;20672;-90
2022/12/12 08:47:20;;;;;;;2.37;2.17;;;;;;;;;;5085475;28;20208;-91
2022/12/12 08:49:46;;;;;;;6.23;4.37;;;;;;;;;;5076091;28;20242;-90
2022/12/12 08:52:13;;;;;;;4.80;4.00;;;;;;;;;;5073659;28;20224;-91
2022/12/12 08:54:40;;;;;;;3.47;3.00;;;;;;;;;;5075921;28;20212;-91
2022/12/12 08:57:07;;;;;;;3.40;3.03;;;;;;;;;;5085815;28;20746;-91
2022/12/12 08:59:34;;;;;;;5.50;3.53;;;;;;;;;;5073484;28;20266;-91
2022/12/12 09:02:01;;;;;;;4.13;3.73;;;;;;;;;;5074213;28;20286;-91
2022/12/12 09:04:29;;;;;;;4.10;3.70;;;;;;;;;;5073796;28;20209;-91
2022/12/12 09:06:56;;;;;;;3.93;3.03;;;;;;;;;;5073363;28;20250;-89
2022/12/12 09:09:23;;;;;;;4.67;3.43;;;;;;;;;;5073542;28;20232;-91
2022/12/12 09:11:50;;;;;;;3.73;3.07;;;;;;;;;;5073107;28;20792;-90
2022/12/12 09:14:17;;;;;;;5.07;4.57;;;;;;;;;;5073400;28;20200;-91
2022/12/12 09:16:44;;;;;;;4.73;4.23;;;;;;;;;;5073403;28;20622;-91
2022/12/12 09:19:11;;;;;;;4.33;3.93;;;;;;;;;;5073219;28;20220;-91
2022/12/12 09:21:39;;;;;;;4.27;3.27;;;;;;;;;;5073830;28;20212;-90
2022/12/12 09:24:07;;;;;;;4.40;3.97;;;;;;;;;;5086523;28;20229;-91
2022/12/12 09:26:33;;;;;;;5.33;4.83;;;;;;;;;;5072789;28;20225;-90
2022/12/12 09:29:00;;;;;;;5.30;4.80;;;;;;;;;;5073403;28;20255;-90
2022/12/12 09:31:27;;;;;;;6.03;4.93;;;;;;;;;;5073352;28;20236;-90
2022/12/12 09:33:54;;;;;;;5.70;4.80;;;;;;;;;;5073117;28;20216;-91
2022/12/12 09:36:21;;;;;;;13.90;7.83;;;;;;;;;;5073272;28;20272;-90
2022/12/12 09:38:50;;;;;;;5.90;5.30;;;;;;;;;;5072092;28;20232;-91
2022/12/12 09:41:18;;;;;;;5.77;5.17;;;;;;;;;;5073495;28;20228;-91
2022/12/12 09:43:50;;;;;;;8.27;6.27;;;;;;;;;;5072738;28;20197;-91
2022/12/12 09:46:28;;;;;;;7.57;5.90;;;;;;;;;;5072640;28;20217;-90
2022/12/12 09:48:57;;;;;;;5.83;5.23;;;;;;;;;;5073081;28;20288;-90
2022/12/12 09:51:23;;;;;;;8.03;6.27;;;;;;;;;;5071707;28;20804;-90
2022/12/12 09:53:52;;;;;;;6.30;5.47;;;;;;;;;;5072933;28;20610;-91
2022/12/12 09:56:22;;;;;;;10.67;5.50;;;;;;;;;;5072378;28;20220;-90
2022/12/12 09:58:51;;;;;;;7.13;4.80;;;;;;;;;;5072446;28;20209;-91
2022/12/12 10:01:22;;;;;;;5.20;4.70;;;;;;;;;;5072496;28;20205;-90
2022/12/12 10:03:56;;;;;;;4.73;4.23;;;;;;;;;;5072369;28;20224;-91
2022/12/12 10:06:23;;;;;;;6.60;4.50;;;;;;;;;;5072624;28;20614;-90
2022/12/12 10:09:00;;;;;;;4.37;3.97;;;;;;;;;;5072480;28;20659;-90
2022/12/12 10:14:15;;;;;;;6.07;4.90;;;;;;;;;;5072631;28;20215;-90
2022/12/12 10:16:43;;;;;;;4.80;4.33;;;;;;;;;;5072505;28;20209;-89
2022/12/12 10:19:14;;;;;;;4.37;3.97;;;;;;;;;;5072471;28;20208;-89
2022/12/12 10:21:41;;;;;;;4.50;3.97;;;;;;;;;;5072223;28;20213;-89
2022/12/12 10:24:13;;;;;;;5.40;3.80;;;;;;;;;;5072574;28;20278;-89
2022/12/12 10:26:41;;;;;;;4.67;3.73;;;;;;;;;;5072399;28;20205;-89
2022/12/12 10:29:11;;;;;;;4.63;3.33;;;;;;;;;;5072180;28;20212;-90
2022/12/12 10:31:44;;;;;;;4.33;3.93;;;;;;;;;;5072070;28;20252;-89
2022/12/12 10:34:21;;;;;;;6.47;4.40;;;;;;;;;;5072367;28;20209;-90
2022/12/12 10:37:09;;;;;;;5.70;4.03;;;;;;;;;;5071722;28;20204;-89
2022/12/12 10:39:44;;;;;;;4.97;4.27;;;;;;;;;;5071923;28;20219;-89
2022/12/12 10:42:18;;;;;;;5.23;3.53;;;;;;;;;;5086412;28;20242;-90
2022/12/12 10:44:57;;;;;;;3.37;3.07;;;;;;;;;;5072404;28;20201;-89
2022/12/12 10:47:24;;;;;;;5.33;3.07;;;;;;;;;;5072075;28;20209;-90
2022/12/12 10:49:51;;;;;;;4.07;3.20;;;;;;;;;;5072339;28;20657;-90
2022/12/12 10:52:20;;;;;;;3.83;3.23;;;;;;;;;;5075641;28;20674;-90
2022/12/12 10:54:52;;;;;;;4.00;2.97;;;;;;;;;;5076371;28;20211;-90
2022/12/12 10:57:22;;;;;;;3.00;2.70;;;;;;;;;;5075745;28;20292;-90
2022/12/12 10:59:51;;;;;;;3.40;3.07;;;;;;;;;;5076081;28;20300;-89
2022/12/12 11:02:37;;;;;;;3.10;2.80;;;;;;;;;;5075932;28;20204;-89
2022/12/12 11:05:14;;;;;;;12.17;7.67;;;;;;;;;;5076176;28;20227;-89
2022/12/12 11:07:43;;;;;;;9.00;3.77;;;;;;;;;;5075966;28;20216;-89
2022/12/12 11:10:26;;;;;;;3.10;2.73;;;;;;;;;;5075566;28;20209;-89
2022/12/12 11:12:58;;;;;;;4.10;3.70;;;;;;;;;;5075373;28;20224;-90
2022/12/12 11:15:39;;;;;;;8.00;3.40;;;;;;;;;;5075217;28;20215;-89
2022/12/12 11:18:07;;;;;;;3.23;2.10;;;;;;;;;;5075288;28;20266;-90
2022/12/12 11:20:34;;;;;;;1.57;1.47;;;;;;;;;;5075530;28;20274;-89
2022/12/12 11:23:03;;;;;;;2.87;2.67;;;;;;;;;;5075204;28;20236;-89
2022/12/12 11:25:33;;;;;;;3.40;1.93;;;;;;;;;;5075454;28;20209;-89
2022/12/12 11:28:02;;;;;;;1.90;1.70;;;;;;;;;;5075625;28;20204;-89
2022/12/12 11:30:34;;;;;;;3.47;2.50;;;;;;;;;;5089396;28;20641;-89
2022/12/12 11:33:03;;;;;;;1.80;1.57;;;;;;;;;;5075192;28;20235;-89
2022/12/12 11:35:33;;;;;;;3.67;1.73;;;;;;;;;;5074992;28;20240;-90
2022/12/12 11:38:02;;;;;;;2.57;1.83;;;;;;;;;;5075533;28;20201;-90
2022/12/12 11:40:32;;;;;;;1.87;1.77;;;;;;;;;;5075160;28;20205;-89
2022/12/12 11:43:19;;;;;;;3.17;2.30;;;;;;;;;;5075699;28;20270;-89
2022/12/12 11:45:58;;;;;;;4.60;4.13;;;;;;;;;;5074470;28;20288;-89
2022/12/12 11:48:37;;;;;;;6.23;4.57;;;;;;;;;;5075115;28;20691;-90
2022/12/12 11:51:04;;;;;;;8.73;4.60;;;;;;;;;;5074660;28;20205;-89
2022/12/12 11:53:32;;;;;;;7.13;5.30;;;;;;;;;;5074754;28;20687;-90
2022/12/12 11:56:10;;;;;;;5.67;4.63;;;;;;;;;;5074993;28;20670;-90
2022/12/12 11:58:41;;;;;;;7.57;5.47;;;;;;;;;;5074572;28;20241;-90
2022/12/12 12:01:12;;;;;;;7.23;5.43;;;;;;;;;;5074969;28;20667;-90
2022/12/12 12:04:16;;;;;;;7.97;5.03;;;;;;;;;;5060934;28;20200;-89
2022/12/12 12:06:56;;;;;;;7.63;5.30;;;;;;;;;;5032636;28;20206;-89
2022/12/12 12:09:29;;;;;;;8.07;5.43;;;;;;;;;;5021497;28;20215;-90
2022/12/12 12:12:05;;;;;;;6.80;4.97;;;;;;;;;;5056094;28;20229;-90
2022/12/12 12:15:02;;;;;;;8.83;6.00;;;;;;;;;;5074536;28;20685;-90
2022/12/12 12:17:44;;;;;;;8.83;4.47;;;;;;;;;;5065683;28;20208;-90
2022/12/12 12:20:19;;;;;;;5.53;4.60;;;;;;;;;;5074179;28;20204;-90
2022/12/12 12:22:52;;;;;;;10.87;5.80;;;;;;;;;;5074086;28;20236;-89
2022/12/12 12:25:24;;;;;;;7.00;6.17;;;;;;;;;;5074104;28;20212;-89
2022/12/12 12:28:00;;;;;;;9.13;5.83;;;;;;;;;;5074608;28;20265;-89
2022/12/12 12:30:28;;;;;;;8.97;6.07;;;;;;;;;;5076912;28;20203;-89
2022/12/12 12:33:13;;;;;;;48.13;27.50;;;;;;;;;;5085303;28;20354;-89
2022/12/12 12:35:50;;;;;;;81.47;43.20;;;;;;;;;;5074081;28;20201;-90
2022/12/12 12:38:27;;;;;;;80.87;38.00;;;;;;;;;;5074258;28;20211;-90
2022/12/12 12:41:06;;;;;;;89.33;46.10;;;;;;;;;;5074042;28;20205;-90
2022/12/12 12:43:45;;;;;;;13.77;10.20;;;;;;;;;;5074208;28;20200;-89
2022/12/12 12:46:17;;;;;;;7.00;5.17;;;;;;;;;;5074658;28;20455;-89
2022/12/12 12:48:47;;;;;;;5.40;4.37;;;;;;;;;;5073847;28;20216;-90
2022/12/12 12:51:17;;;;;;;25.03;17.03;;;;;;;;;;5073562;28;20679;-90
2022/12/12 12:53:47;;;;;;;15.20;10.13;;;;;;;;;;5073493;28;20625;-89
2022/12/12 12:56:20;;;;;;;8.37;5.83;;;;;;;;;;5073404;28;20201;-90
2022/12/12 12:58:49;;;;;;;7.27;6.60;;;;;;;;;;5073654;28;20272;-90
2022/12/12 13:01:21;;;;;;;6.57;5.23;;;;;;;;;;5073512;28;20213;-89
2022/12/12 13:03:54;;;;;;;6.83;3.60;;;;;;;;;;5073559;28;20209;-90
2022/12/12 13:06:23;;;;;;;6.23;4.73;;;;;;;;;;5073125;28;20212;-90
2022/12/12 13:08:54;;;;;;;7.23;4.10;;;;;;;;;;5073791;28;20274;-90
2022/12/12 13:11:26;;;;;;;3.07;2.80;;;;;;;;;;5073854;28;20707;-90
2022/12/12 13:13:57;;;;;;;3.27;2.67;;;;;;;;;;5073249;28;20227;-89
2022/12/12 13:16:27;;;;;;;5.23;3.40;;;;;;;;;;5073715;28;20564;-90
2022/12/12 13:19:02;;;;;;;37.17;25.03;;;;;;;;;;5073566;28;20197;-90
2022/12/12 13:21:33;;;;;;;14.43;9.97;;;;;;;;;;5073640;28;20642;-90
2022/12/12 13:24:04;;;;;;;14.33;10.27;;;;;;;;;;5073205;28;20306;-90
2022/12/12 13:26:37;;;;;;;31.03;18.43;;;;;;;;;;5073705;28;20590;-91
2022/12/12 13:29:14;;;;;;;18.77;14.07;;;;;;;;;;5087609;28;20209;-91
2022/12/12 13:32:23;;;;;;;17.60;9.50;;;;;;;;;;5073123;28;20208;-90
2022/12/12 13:34:53;;;;;;;21.80;15.53;;;;;;;;;;5073307;28;20212;-90
2022/12/12 13:37:21;;;;;;;19.37;16.27;;;;;;;;;;5072859;28;20212;-90
2022/12/12 13:39:58;;;;;;;30.80;22.40;;;;;;;;;;5073063;28;20218;-90
2022/12/12 13:42:25;;;;;;;22.30;15.97;;;;;;;;;;5073285;28;20753;-90
2022/12/12 13:44:53;;;;;;;21.00;14.20;;;;;;;;;;5072442;28;20201;-91
2022/12/12 13:48:00;;;;;;;13.07;10.57;;;;;;;;;;5073228;28;20625;-90
2022/12/12 13:50:27;;;;;;;18.17;14.63;;;;;;;;;;5061797;28;20208;-90
2022/12/12 13:53:17;;;;;;;22.50;16.20;;;;;;;;;;5072645;28;20652;-90
2022/12/12 13:55:44;;;;;;;7.90;7.10;;;;;;;;;;5072465;28;20227;-90
2022/12/12 13:58:34;;;;;;;6.80;6.10;;;;;;;;;;5072735;28;20205;-90
2022/12/12 14:01:38;;;;;;;6.40;5.50;;;;;;;;;;5072773;28;20622;-90
2022/12/12 14:04:06;;;;;;;9.17;8.00;;;;;;;;;;5051187;28;20262;-90
2022/12/12 14:06:33;;;;;;;6.50;5.43;;;;;;;;;;5072790;28;20709;-90
2022/12/12 14:09:00;;;;;;;4.80;4.40;;;;;;;;;;5073360;28;20208;-90
2022/12/12 14:11:31;;;;;;;12.80;10.33;;;;;;;;;;5072443;28;20213;-90
2022/12/12 14:14:18;;;;;;;35.93;21.93;;;;;;;;;;5072229;28;20228;-90
2022/12/12 14:16:53;;;;;;;26.87;16.90;;;;;;;;;;5071805;28;20291;-89
2022/12/12 14:19:29;;;;;;;19.37;11.60;;;;;;;;;;5072082;28;20204;-91
2022/12/12 14:21:56;;;;;;;31.87;21.67;;;;;;;;;;5086169;28;20199;-90
2022/12/12 14:24:58;;;;;;;24.93;15.63;;;;;;;;;;5072086;28;20215;-90
2022/12/12 14:28:12;;;;;;;15.87;12.13;;;;;;;;;;5078105;28;20281;-90
2022/12/12 14:31:09;;;;;;;15.73;11.20;;;;;;;;;;5032306;28;20209;-90
2022/12/12 14:33:54;;;;;;;54.03;35.57;;;;;;;;;;5070919;28;20236;-91
2022/12/12 14:36:48;;;;;;;35.30;22.90;;;;;;;;;;5073088;28;20599;-89
2022/12/12 14:39:25;;;;;;;33.03;18.90;;;;;;;;;;5071793;28;20201;-89
2022/12/12 14:41:53;;;;;;;20.73;15.07;;;;;;;;;;5072588;28;20266;-89
2022/12/12 14:44:22;;;;;;;15.50;11.67;;;;;;;;;;5071892;28;20213;-90
2022/12/12 14:46:48;;;;;;;37.90;20.17;;;;;;;;;;5072315;28;20599;-90
2022/12/12 14:49:21;;;;;;;37.90;21.13;;;;;;;;;;5072813;28;20281;-89
2022/12/12 14:51:51;;;;;;;12.40;9.30;;;;;;;;;;5076967;28;20270;-90
2022/12/12 14:54:19;;;;;;;48.57;32.07;;;;;;;;;;5083287;28;20228;-91
2022/12/12 14:56:48;;;;;;;57.80;37.93;;;;;;;;;;5069733;28;20283;-90
2022/12/12 14:59:17;;;;;;;146.17;69.20;;;;;;;;;;5071301;28;20209;-90
2022/12/12 15:01:46;;;;;;;91.97;52.90;;;;;;;;;;5079023;28;20208;-90
2022/12/12 15:04:18;;;;;;;32.63;23.57;;;;;;;;;;5074102;28;20205;-90
2022/12/12 15:06:46;;;;;;;24.17;18.27;;;;;;;;;;5071594;28;20587;-90
2022/12/12 15:09:35;;;;;;;27.73;19.60;;;;;;;;;;5069812;28;20205;-90
2022/12/12 15:12:15;;;;;;;13.00;10.27;;;;;;;;;;5082234;28;20200;-90
2022/12/12 15:14:53;;;;;;;18.23;12.83;;;;;;;;;;5072327;28;20205;-91
2022/12/12 15:17:21;;;;;;;42.83;28.85;;;;;;;;;;5060338;28;20507;-89
2022/12/12 15:19:52;;;;;;;34.07;24.67;;;;;;;;;;5070143;28;20205;-90
2022/12/12 15:22:23;;;;;;;46.67;31.43;;;;;;;;;;5061353;28;20268;-89